Pagrindinis puslapis
METAR-TAF:

METAR-TAF

Oro uostai :

Pompano Beach Airpark

Pompano Beach, Florida, Jungtinės Amerikos Valstijos

platuma: 26-14-44N, ilguma: 080-06-41W, Aukštis: 6 m

Dabartinis oras

Ataskaita buvo paskelbta 12 minutes, ne 07:53 UTC
Vėjas 7 kt iš Vakarų/Šiaurės Vakarų
Temperatūra 21°C
Drėgmė 78%
Slėgis 1015 hPa
Matomumas: 16.1 km
Mažai debesys ne aukštis 8000 ft
Apsiniaukę ne aukštis 11000 ft

METAR: KPMP 270753Z AUTO 29007KT 10SM FEW080 OVC110 21/17 A2998 RMK AO2 SLP154 T02060167 $

Laikas: 03:05 (08:05 UTC)


TAF: trūkstamas

Orai ataskaitas ir orų prognozės (METAR, TAF).

turimą stotys yra geltonos ir raudonos taškus žemėlapyje.

Perkelti pele per norėdami pamatyti stoties vardą.

Tada spustelėkite, norėdami matyti oro stebėjimo ir prognozės.

Norėdami pakeisti žemėlapį: spustelėkite ant žalios mygtukų su juodo kryžiaus žemyn,; žalią mygtuką su brūkšneliu, jei norite nutolinti; arba žalių rodyklių gretimoms žemėlapius.


METAR-TAF: